sensor_id;sensor_type;location;lat;lon;timestamp;P1;durP1;ratioP1;P2;durP2;ratioP2
66886;SDS011;53798;51.680;5.976;2022-07-10T00:00:26;9.82;;;1.60;;
66886;SDS011;53798;51.680;5.976;2022-07-10T00:02:54;6.60;;;1.50;;
66886;SDS011;53798;51.680;5.976;2022-07-10T00:05:23;6.13;;;1.33;;
66886;SDS011;53798;51.680;5.976;2022-07-10T00:07:52;4.95;;;1.35;;
66886;SDS011;53798;51.680;5.976;2022-07-10T00:10:19;4.13;;;1.25;;
66886;SDS011;53798;51.680;5.976;2022-07-10T00:12:48;6.35;;;1.48;;
66886;SDS011;53798;51.680;5.976;2022-07-10T00:15:18;5.93;;;1.40;;
66886;SDS011;53798;51.680;5.976;2022-07-10T00:17:46;7.13;;;1.58;;
66886;SDS011;53798;51.680;5.976;2022-07-10T00:20:13;8.50;;;1.90;;
66886;SDS011;53798;51.680;5.976;2022-07-10T00:22:41;4.07;;;1.30;;
66886;SDS011;53798;51.680;5.976;2022-07-10T00:25:10;4.75;;;1.30;;
66886;SDS011;53798;51.680;5.976;2022-07-10T00:27:40;9.55;;;1.30;;
66886;SDS011;53798;51.680;5.976;2022-07-10T00:30:08;4.38;;;1.27;;
66886;SDS011;53798;51.680;5.976;2022-07-10T00:32:37;5.88;;;1.50;;
66886;SDS011;53798;51.680;5.976;2022-07-10T00:35:05;5.00;;;1.30;;
66886;SDS011;53798;51.680;5.976;2022-07-10T00:37:37;5.22;;;1.25;;
66886;SDS011;53798;51.680;5.976;2022-07-10T00:40:04;4.20;;;1.00;;
66886;SDS011;53798;51.680;5.976;2022-07-10T00:42:32;5.65;;;1.25;;
66886;SDS011;53798;51.680;5.976;2022-07-10T00:45:00;5.70;;;1.05;;
66886;SDS011;53798;51.680;5.976;2022-07-10T00:47:27;7.85;;;1.52;;
66886;SDS011;53798;51.680;5.976;2022-07-10T00:49:54;6.50;;;1.70;;
66886;SDS011;53798;51.680;5.976;2022-07-10T00:52:22;5.38;;;1.42;;
66886;SDS011;53798;51.680;5.976;2022-07-10T00:54:50;5.22;;;1.20;;
66886;SDS011;53798;51.680;5.976;2022-07-10T00:57:17;4.47;;;1.35;;
66886;SDS011;53798;51.680;5.976;2022-07-10T00:59:52;8.35;;;1.75;;
66886;SDS011;53798;51.680;5.976;2022-07-10T01:04:48;4.88;;;1.70;;
66886;SDS011;53798;51.680;5.976;2022-07-10T01:07:15;3.92;;;1.50;;
66886;SDS011;53798;51.680;5.976;2022-07-10T01:09:43;10.00;;;1.60;;
66886;SDS011;53798;51.680;5.976;2022-07-10T01:12:10;6.75;;;1.80;;
66886;SDS011;53798;51.680;5.976;2022-07-10T01:14:39;6.05;;;1.70;;
66886;SDS011;53798;51.680;5.976;2022-07-10T01:17:08;6.35;;;1.73;;
66886;SDS011;53798;51.680;5.976;2022-07-10T01:19:36;8.80;;;2.00;;
66886;SDS011;53798;51.680;5.976;2022-07-10T01:22:03;9.13;;;2.00;;
66886;SDS011;53798;51.680;5.976;2022-07-10T01:24:30;4.90;;;1.70;;
66886;SDS011;53798;51.680;5.976;2022-07-10T01:26:58;3.75;;;1.60;;
66886;SDS011;53798;51.680;5.976;2022-07-10T01:29:25;8.60;;;2.03;;
66886;SDS011;53798;51.680;5.976;2022-07-10T01:31:53;5.50;;;1.85;;
66886;SDS011;53798;51.680;5.976;2022-07-10T01:34:24;5.20;;;1.90;;
66886;SDS011;53798;51.680;5.976;2022-07-10T01:36:51;3.63;;;1.50;;
66886;SDS011;53798;51.680;5.976;2022-07-10T01:39:18;6.72;;;1.50;;
66886;SDS011;53798;51.680;5.976;2022-07-10T01:41:45;7.72;;;1.90;;
66886;SDS011;53798;51.680;5.976;2022-07-10T01:44:12;7.43;;;1.92;;
66886;SDS011;53798;51.680;5.976;2022-07-10T01:46:46;5.30;;;2.00;;
66886;SDS011;53798;51.680;5.976;2022-07-10T01:49:15;7.93;;;2.13;;
66886;SDS011;53798;51.680;5.976;2022-07-10T01:51:42;7.47;;;1.88;;
66886;SDS011;53798;51.680;5.976;2022-07-10T01:54:10;5.90;;;1.83;;
66886;SDS011;53798;51.680;5.976;2022-07-10T01:56:37;4.53;;;1.80;;
66886;SDS011;53798;51.680;5.976;2022-07-10T01:59:05;5.00;;;2.05;;
66886;SDS011;53798;51.680;5.976;2022-07-10T02:01:33;7.32;;;1.73;;
66886;SDS011;53798;51.680;5.976;2022-07-10T02:04:00;7.93;;;1.70;;
66886;SDS011;53798;51.680;5.976;2022-07-10T02:06:47;5.13;;;1.75;;
66886;SDS011;53798;51.680;5.976;2022-07-10T02:09:14;7.03;;;2.15;;
66886;SDS011;53798;51.680;5.976;2022-07-10T02:11:41;6.43;;;1.98;;
66886;SDS011;53798;51.680;5.976;2022-07-10T02:14:08;4.80;;;1.50;;
66886;SDS011;53798;51.680;5.976;2022-07-10T02:16:36;5.50;;;1.52;;
66886;SDS011;53798;51.680;5.976;2022-07-10T02:19:03;7.70;;;1.92;;
66886;SDS011;53798;51.680;5.976;2022-07-10T02:21:31;4.47;;;1.85;;
66886;SDS011;53798;51.680;5.976;2022-07-10T02:23:58;8.18;;;1.70;;
66886;SDS011;53798;51.680;5.976;2022-07-10T02:26:25;8.40;;;2.00;;
66886;SDS011;53798;51.680;5.976;2022-07-10T02:28:53;7.32;;;1.85;;
66886;SDS011;53798;51.680;5.976;2022-07-10T02:31:20;5.65;;;1.67;;
66886;SDS011;53798;51.680;5.976;2022-07-10T02:33:48;6.00;;;1.80;;
66886;SDS011;53798;51.680;5.976;2022-07-10T02:36:15;6.32;;;1.77;;
66886;SDS011;53798;51.680;5.976;2022-07-10T02:38:42;5.90;;;1.45;;
66886;SDS011;53798;51.680;5.976;2022-07-10T02:41:09;7.07;;;2.08;;
66886;SDS011;53798;51.680;5.976;2022-07-10T02:43:37;8.18;;;2.00;;
66886;SDS011;53798;51.680;5.976;2022-07-10T02:46:05;5.10;;;1.45;;
66886;SDS011;53798;51.680;5.976;2022-07-10T02:48:32;5.53;;;2.20;;
66886;SDS011;53798;51.680;5.976;2022-07-10T02:51:00;9.40;;;1.90;;
66886;SDS011;53798;51.680;5.976;2022-07-10T02:53:27;6.78;;;2.17;;
66886;SDS011;53798;51.680;5.976;2022-07-10T02:55:55;4.68;;;1.73;;
66886;SDS011;53798;51.680;5.976;2022-07-10T02:58:22;10.60;;;1.60;;
66886;SDS011;53798;51.680;5.976;2022-07-10T03:00:51;8.95;;;1.80;;
66886;SDS011;53798;51.680;5.976;2022-07-10T03:03:20;5.22;;;1.83;;
66886;SDS011;53798;51.680;5.976;2022-07-10T03:05:47;5.03;;;1.88;;
66886;SDS011;53798;51.680;5.976;2022-07-10T03:08:15;5.05;;;1.50;;
66886;SDS011;53798;51.680;5.976;2022-07-10T03:10:42;6.28;;;1.80;;
66886;SDS011;53798;51.680;5.976;2022-07-10T03:13:10;9.43;;;2.10;;
66886;SDS011;53798;51.680;5.976;2022-07-10T03:15:37;8.30;;;1.90;;
66886;SDS011;53798;51.680;5.976;2022-07-10T03:18:04;5.80;;;1.98;;
66886;SDS011;53798;51.680;5.976;2022-07-10T03:20:31;5.57;;;1.60;;
66886;SDS011;53798;51.680;5.976;2022-07-10T03:22:58;8.32;;;1.73;;
66886;SDS011;53798;51.680;5.976;2022-07-10T03:25:25;6.95;;;2.00;;
66886;SDS011;53798;51.680;5.976;2022-07-10T03:27:53;5.50;;;2.00;;
66886;SDS011;53798;51.680;5.976;2022-07-10T03:30:20;7.40;;;1.90;;
66886;SDS011;53798;51.680;5.976;2022-07-10T03:32:47;6.35;;;2.08;;
66886;SDS011;53798;51.680;5.976;2022-07-10T03:35:15;8.70;;;1.98;;
66886;SDS011;53798;51.680;5.976;2022-07-10T03:37:43;8.20;;;2.30;;
66886;SDS011;53798;51.680;5.976;2022-07-10T03:40:10;9.90;;;1.55;;
66886;SDS011;53798;51.680;5.976;2022-07-10T03:42:38;6.25;;;1.90;;
66886;SDS011;53798;51.680;5.976;2022-07-10T03:45:05;6.95;;;1.75;;
66886;SDS011;53798;51.680;5.976;2022-07-10T03:47:32;7.60;;;1.70;;
66886;SDS011;53798;51.680;5.976;2022-07-10T03:50:00;6.13;;;1.65;;
66886;SDS011;53798;51.680;5.976;2022-07-10T03:52:27;7.20;;;1.70;;
66886;SDS011;53798;51.680;5.976;2022-07-10T03:54:54;5.50;;;1.50;;
66886;SDS011;53798;51.680;5.976;2022-07-10T03:57:21;7.00;;;1.77;;
66886;SDS011;53798;51.680;5.976;2022-07-10T04:00:07;8.05;;;2.15;;
66886;SDS011;53798;51.680;5.976;2022-07-10T04:02:38;5.93;;;1.58;;
66886;SDS011;53798;51.680;5.976;2022-07-10T04:05:10;9.88;;;1.98;;
66886;SDS011;53798;51.680;5.976;2022-07-10T04:07:37;8.43;;;1.90;;
66886;SDS011;53798;51.680;5.976;2022-07-10T04:10:04;8.77;;;1.65;;
66886;SDS011;53798;51.680;5.976;2022-07-10T04:12:32;6.25;;;2.03;;
66886;SDS011;53798;51.680;5.976;2022-07-10T04:14:59;4.57;;;1.50;;
66886;SDS011;53798;51.680;5.976;2022-07-10T04:17:27;5.10;;;1.60;;
66886;SDS011;53798;51.680;5.976;2022-07-10T04:19:54;7.65;;;2.03;;
66886;SDS011;53798;51.680;5.976;2022-07-10T04:22:21;4.57;;;1.92;;
66886;SDS011;53798;51.680;5.976;2022-07-10T04:24:49;6.38;;;1.80;;
66886;SDS011;53798;51.680;5.976;2022-07-10T04:27:17;6.50;;;2.10;;
66886;SDS011;53798;51.680;5.976;2022-07-10T04:29:44;5.53;;;1.85;;
66886;SDS011;53798;51.680;5.976;2022-07-10T04:32:11;6.80;;;2.25;;
66886;SDS011;53798;51.680;5.976;2022-07-10T04:34:39;8.02;;;2.03;;
66886;SDS011;53798;51.680;5.976;2022-07-10T04:37:06;7.20;;;1.83;;
66886;SDS011;53798;51.680;5.976;2022-07-10T04:39:34;8.20;;;1.73;;
66886;SDS011;53798;51.680;5.976;2022-07-10T04:42:04;6.50;;;2.03;;
66886;SDS011;53798;51.680;5.976;2022-07-10T04:44:33;7.93;;;2.20;;
66886;SDS011;53798;51.680;5.976;2022-07-10T04:47:03;7.95;;;2.30;;
66886;SDS011;53798;51.680;5.976;2022-07-10T04:49:32;7.63;;;2.20;;
66886;SDS011;53798;51.680;5.976;2022-07-10T04:52:00;8.65;;;2.22;;
66886;SDS011;53798;51.680;5.976;2022-07-10T04:54:28;9.18;;;2.58;;
66886;SDS011;53798;51.680;5.976;2022-07-10T04:56:55;5.78;;;2.30;;
66886;SDS011;53798;51.680;5.976;2022-07-10T04:59:23;9.27;;;2.72;;
66886;SDS011;53798;51.680;5.976;2022-07-10T05:01:50;8.73;;;2.70;;
66886;SDS011;53798;51.680;5.976;2022-07-10T05:04:18;6.13;;;2.50;;
66886;SDS011;53798;51.680;5.976;2022-07-10T05:06:46;6.03;;;2.42;;
66886;SDS011;53798;51.680;5.976;2022-07-10T05:09:13;10.68;;;2.47;;
66886;SDS011;53798;51.680;5.976;2022-07-10T05:11:40;6.68;;;2.50;;
66886;SDS011;53798;51.680;5.976;2022-07-10T05:14:09;6.53;;;2.47;;
66886;SDS011;53798;51.680;5.976;2022-07-10T05:16:36;8.80;;;2.15;;
66886;SDS011;53798;51.680;5.976;2022-07-10T05:19:04;6.55;;;1.65;;
66886;SDS011;53798;51.680;5.976;2022-07-10T05:21:31;7.85;;;2.15;;
66886;SDS011;53798;51.680;5.976;2022-07-10T05:23:58;5.82;;;2.38;;
66886;SDS011;53798;51.680;5.976;2022-07-10T05:26:25;7.88;;;2.00;;
66886;SDS011;53798;51.680;5.976;2022-07-10T05:28:52;8.95;;;2.15;;
66886;SDS011;53798;51.680;5.976;2022-07-10T05:31:20;8.10;;;2.10;;
66886;SDS011;53798;51.680;5.976;2022-07-10T05:33:47;6.72;;;1.98;;
66886;SDS011;53798;51.680;5.976;2022-07-10T05:36:14;8.02;;;2.00;;
66886;SDS011;53798;51.680;5.976;2022-07-10T05:38:41;6.95;;;2.17;;
66886;SDS011;53798;51.680;5.976;2022-07-10T05:41:09;5.43;;;2.33;;
66886;SDS011;53798;51.680;5.976;2022-07-10T05:43:36;4.88;;;2.10;;
66886;SDS011;53798;51.680;5.976;2022-07-10T05:46:03;7.93;;;1.98;;
66886;SDS011;53798;51.680;5.976;2022-07-10T05:51:23;7.68;;;2.20;;
66886;SDS011;53798;51.680;5.976;2022-07-10T05:54:04;5.95;;;1.70;;
66886;SDS011;53798;51.680;5.976;2022-07-10T05:56:32;6.22;;;2.03;;
66886;SDS011;53798;51.680;5.976;2022-07-10T05:58:59;9.48;;;1.75;;
66886;SDS011;53798;51.680;5.976;2022-07-10T06:01:26;9.10;;;2.28;;
66886;SDS011;53798;51.680;5.976;2022-07-10T06:03:53;6.70;;;2.35;;
66886;SDS011;53798;51.680;5.976;2022-07-10T06:06:21;7.05;;;1.83;;
66886;SDS011;53798;51.680;5.976;2022-07-10T06:08:48;6.65;;;2.03;;
66886;SDS011;53798;51.680;5.976;2022-07-10T06:11:15;7.50;;;2.30;;
66886;SDS011;53798;51.680;5.976;2022-07-10T06:13:43;8.18;;;2.00;;
66886;SDS011;53798;51.680;5.976;2022-07-10T06:16:10;5.57;;;1.88;;
66886;SDS011;53798;51.680;5.976;2022-07-10T06:18:37;6.68;;;2.10;;
66886;SDS011;53798;51.680;5.976;2022-07-10T06:21:05;6.45;;;2.00;;
66886;SDS011;53798;51.680;5.976;2022-07-10T06:23:32;4.88;;;1.73;;
66886;SDS011;53798;51.680;5.976;2022-07-10T06:25:59;8.05;;;1.98;;
66886;SDS011;53798;51.680;5.976;2022-07-10T06:28:27;9.25;;;1.95;;
66886;SDS011;53798;51.680;5.976;2022-07-10T06:30:54;5.95;;;1.83;;
66886;SDS011;53798;51.680;5.976;2022-07-10T06:33:26;6.50;;;1.80;;
66886;SDS011;53798;51.680;5.976;2022-07-10T06:35:53;7.55;;;1.58;;
66886;SDS011;53798;51.680;5.976;2022-07-10T06:38:20;8.18;;;1.75;;
66886;SDS011;53798;51.680;5.976;2022-07-10T06:40:48;4.80;;;1.30;;
66886;SDS011;53798;51.680;5.976;2022-07-10T06:43:17;6.60;;;1.27;;
66886;SDS011;53798;51.680;5.976;2022-07-10T06:45:44;9.50;;;1.45;;
66886;SDS011;53798;51.680;5.976;2022-07-10T06:48:12;7.07;;;1.42;;
66886;SDS011;53798;51.680;5.976;2022-07-10T06:50:40;5.85;;;1.67;;
66886;SDS011;53798;51.680;5.976;2022-07-10T06:53:14;7.60;;;1.25;;
66886;SDS011;53798;51.680;5.976;2022-07-10T06:55:42;8.05;;;1.55;;
66886;SDS011;53798;51.680;5.976;2022-07-10T06:58:09;8.82;;;1.60;;
66886;SDS011;53798;51.680;5.976;2022-07-10T07:00:36;10.52;;;1.23;;
66886;SDS011;53798;51.680;5.976;2022-07-10T07:03:04;7.95;;;1.60;;
66886;SDS011;53798;51.680;5.976;2022-07-10T07:05:32;8.60;;;1.48;;
66886;SDS011;53798;51.680;5.976;2022-07-10T07:07:59;5.22;;;1.35;;
66886;SDS011;53798;51.680;5.976;2022-07-10T07:10:27;7.90;;;1.67;;
66886;SDS011;53798;51.680;5.976;2022-07-10T07:12:54;8.18;;;1.45;;
66886;SDS011;53798;51.680;5.976;2022-07-10T07:15:22;7.15;;;1.38;;
66886;SDS011;53798;51.680;5.976;2022-07-10T07:17:51;10.98;;;1.63;;
66886;SDS011;53798;51.680;5.976;2022-07-10T07:20:25;6.13;;;1.38;;
66886;SDS011;53798;51.680;5.976;2022-07-10T07:23:11;6.85;;;1.17;;
66886;SDS011;53798;51.680;5.976;2022-07-10T07:25:39;7.32;;;1.50;;
66886;SDS011;53798;51.680;5.976;2022-07-10T07:28:14;6.43;;;1.38;;
66886;SDS011;53798;51.680;5.976;2022-07-10T07:30:42;6.97;;;1.42;;
66886;SDS011;53798;51.680;5.976;2022-07-10T07:33:11;8.75;;;1.70;;
66886;SDS011;53798;51.680;5.976;2022-07-10T07:35:41;6.75;;;1.42;;
66886;SDS011;53798;51.680;5.976;2022-07-10T07:38:10;5.90;;;1.50;;
66886;SDS011;53798;51.680;5.976;2022-07-10T07:40:37;7.20;;;1.30;;
66886;SDS011;53798;51.680;5.976;2022-07-10T07:43:05;9.50;;;1.73;;
66886;SDS011;53798;51.680;5.976;2022-07-10T07:45:33;7.95;;;1.45;;
66886;SDS011;53798;51.680;5.976;2022-07-10T07:48:00;10.45;;;1.80;;
66886;SDS011;53798;51.680;5.976;2022-07-10T07:50:34;7.63;;;1.70;;
66886;SDS011;53798;51.680;5.976;2022-07-10T07:53:03;8.30;;;1.60;;
66886;SDS011;53798;51.680;5.976;2022-07-10T07:55:32;7.63;;;1.55;;
66886;SDS011;53798;51.680;5.976;2022-07-10T07:58:01;6.55;;;1.50;;
66886;SDS011;53798;51.680;5.976;2022-07-10T08:00:30;6.53;;;1.45;;
66886;SDS011;53798;51.680;5.976;2022-07-10T08:02:58;5.18;;;1.40;;
66886;SDS011;53798;51.680;5.976;2022-07-10T08:05:27;9.90;;;1.70;;
66886;SDS011;53798;51.680;5.976;2022-07-10T08:07:56;12.25;;;1.42;;
66886;SDS011;53798;51.680;5.976;2022-07-10T08:10:31;5.40;;;1.65;;
66886;SDS011;53798;51.680;5.976;2022-07-10T08:12:59;8.02;;;1.60;;
66886;SDS011;53798;51.680;5.976;2022-07-10T08:15:26;5.15;;;1.30;;
66886;SDS011;53798;51.680;5.976;2022-07-10T08:17:54;9.05;;;1.42;;
66886;SDS011;53798;51.680;5.976;2022-07-10T08:20:25;5.75;;;1.50;;
66886;SDS011;53798;51.680;5.976;2022-07-10T08:22:54;9.75;;;1.42;;
66886;SDS011;53798;51.680;5.976;2022-07-10T08:25:26;8.43;;;1.60;;
66886;SDS011;53798;51.680;5.976;2022-07-10T08:27:59;3.97;;;1.10;;
66886;SDS011;53798;51.680;5.976;2022-07-10T08:30:28;15.10;;;1.90;;
66886;SDS011;53798;51.680;5.976;2022-07-10T08:32:55;5.88;;;1.42;;
66886;SDS011;53798;51.680;5.976;2022-07-10T08:35:22;5.18;;;1.40;;
66886;SDS011;53798;51.680;5.976;2022-07-10T08:37:49;7.22;;;1.58;;
66886;SDS011;53798;51.680;5.976;2022-07-10T08:40:23;5.97;;;1.33;;
66886;SDS011;53798;51.680;5.976;2022-07-10T08:42:50;7.25;;;1.38;;
66886;SDS011;53798;51.680;5.976;2022-07-10T08:45:18;5.90;;;1.55;;
66886;SDS011;53798;51.680;5.976;2022-07-10T08:47:45;6.97;;;1.42;;
66886;SDS011;53798;51.680;5.976;2022-07-10T08:50:21;8.73;;;1.60;;
66886;SDS011;53798;51.680;5.976;2022-07-10T08:55:44;8.88;;;1.80;;
66886;SDS011;53798;51.680;5.976;2022-07-10T08:58:12;10.05;;;1.50;;
66886;SDS011;53798;51.680;5.976;2022-07-10T09:00:43;6.65;;;1.17;;
66886;SDS011;53798;51.680;5.976;2022-07-10T09:03:12;4.97;;;1.15;;
66886;SDS011;53798;51.680;5.976;2022-07-10T09:05:39;4.55;;;1.13;;
66886;SDS011;53798;51.680;5.976;2022-07-10T09:08:24;9.75;;;1.40;;
66886;SDS011;53798;51.680;5.976;2022-07-10T09:11:13;5.53;;;1.33;;
66886;SDS011;53798;51.680;5.976;2022-07-10T09:13:48;5.45;;;1.20;;
66886;SDS011;53798;51.680;5.976;2022-07-10T09:16:23;4.03;;;1.27;;
66886;SDS011;53798;51.680;5.976;2022-07-10T09:18:56;6.75;;;1.23;;
66886;SDS011;53798;51.680;5.976;2022-07-10T09:21:40;3.58;;;1.02;;
66886;SDS011;53798;51.680;5.976;2022-07-10T09:24:07;5.45;;;1.10;;
66886;SDS011;53798;51.680;5.976;2022-07-10T09:26:36;9.30;;;1.30;;
66886;SDS011;53798;51.680;5.976;2022-07-10T09:29:13;7.28;;;1.10;;
66886;SDS011;53798;51.680;5.976;2022-07-10T09:34:37;1.67;;;1.13;;
66886;SDS011;53798;51.680;5.976;2022-07-10T09:37:25;5.68;;;1.50;;
66886;SDS011;53798;51.680;5.976;2022-07-10T09:39:57;4.90;;;0.85;;
66886;SDS011;53798;51.680;5.976;2022-07-10T09:42:32;5.15;;;0.98;;
66886;SDS011;53798;51.680;5.976;2022-07-10T09:47:40;6.90;;;1.15;;
66886;SDS011;53798;51.680;5.976;2022-07-10T09:52:56;5.55;;;1.17;;
66886;SDS011;53798;51.680;5.976;2022-07-10T09:55:29;5.88;;;1.50;;
66886;SDS011;53798;51.680;5.976;2022-07-10T09:58:04;7.05;;;1.50;;
66886;SDS011;53798;51.680;5.976;2022-07-10T10:00:35;5.32;;;1.40;;
66886;SDS011;53798;51.680;5.976;2022-07-10T10:03:13;5.35;;;1.23;;
66886;SDS011;53798;51.680;5.976;2022-07-10T10:05:44;5.47;;;1.33;;
66886;SDS011;53798;51.680;5.976;2022-07-10T10:08:27;6.78;;;1.35;;
66886;SDS011;53798;51.680;5.976;2022-07-10T10:13:25;4.20;;;1.30;;
66886;SDS011;53798;51.680;5.976;2022-07-10T10:15:54;6.88;;;1.35;;
66886;SDS011;53798;51.680;5.976;2022-07-10T10:18:23;6.05;;;1.40;;
66886;SDS011;53798;51.680;5.976;2022-07-10T10:20:53;6.97;;;1.50;;
66886;SDS011;53798;51.680;5.976;2022-07-10T10:23:23;3.83;;;1.20;;
66886;SDS011;53798;51.680;5.976;2022-07-10T10:25:52;6.63;;;1.45;;
66886;SDS011;53798;51.680;5.976;2022-07-10T10:28:25;3.83;;;1.48;;
66886;SDS011;53798;51.680;5.976;2022-07-10T10:30:55;4.55;;;1.30;;
66886;SDS011;53798;51.680;5.976;2022-07-10T10:36:10;4.15;;;1.10;;
66886;SDS011;53798;51.680;5.976;2022-07-10T10:46:35;2.97;;;0.93;;
66886;SDS011;53798;51.680;5.976;2022-07-10T10:49:20;4.90;;;1.10;;
66886;SDS011;53798;51.680;5.976;2022-07-10T10:54:26;4.30;;;1.30;;
66886;SDS011;53798;51.680;5.976;2022-07-10T10:57:14;6.80;;;1.30;;
66886;SDS011;53798;51.680;5.976;2022-07-10T10:59:46;4.80;;;1.30;;
66886;SDS011;53798;51.680;5.976;2022-07-10T11:02:33;4.45;;;1.40;;
66886;SDS011;53798;51.680;5.976;2022-07-10T11:07:56;3.13;;;1.05;;
66886;SDS011;53798;51.680;5.976;2022-07-10T11:13:03;4.93;;;1.30;;
66886;SDS011;53798;51.680;5.976;2022-07-10T11:15:39;3.38;;;1.20;;
66886;SDS011;53798;51.680;5.976;2022-07-10T11:18:10;5.97;;;1.40;;
66886;SDS011;53798;51.680;5.976;2022-07-10T11:20:47;4.15;;;1.27;;
66886;SDS011;53798;51.680;5.976;2022-07-10T11:32:04;5.32;;;1.05;;
66886;SDS011;53798;51.680;5.976;2022-07-10T11:34:35;1.70;;;0.80;;
66886;SDS011;53798;51.680;5.976;2022-07-10T11:37:13;6.43;;;1.00;;
66886;SDS011;53798;51.680;5.976;2022-07-10T11:39:43;2.30;;;1.13;;
66886;SDS011;53798;51.680;5.976;2022-07-10T11:42:10;3.08;;;1.00;;
66886;SDS011;53798;51.680;5.976;2022-07-10T11:44:37;3.47;;;1.15;;
66886;SDS011;53798;51.680;5.976;2022-07-10T11:47:04;3.10;;;1.00;;
66886;SDS011;53798;51.680;5.976;2022-07-10T11:49:33;3.50;;;1.15;;
66886;SDS011;53798;51.680;5.976;2022-07-10T11:52:07;2.63;;;1.10;;
66886;SDS011;53798;51.680;5.976;2022-07-10T11:54:35;3.25;;;0.98;;
66886;SDS011;53798;51.680;5.976;2022-07-10T11:57:05;3.22;;;1.10;;
66886;SDS011;53798;51.680;5.976;2022-07-10T11:59:36;3.95;;;0.90;;
66886;SDS011;53798;51.680;5.976;2022-07-10T12:02:03;2.83;;;1.10;;
66886;SDS011;53798;51.680;5.976;2022-07-10T12:04:31;2.13;;;0.95;;
66886;SDS011;53798;51.680;5.976;2022-07-10T12:06:59;4.32;;;1.30;;
66886;SDS011;53798;51.680;5.976;2022-07-10T12:09:26;4.20;;;1.23;;
66886;SDS011;53798;51.680;5.976;2022-07-10T12:14:32;4.15;;;1.20;;
66886;SDS011;53798;51.680;5.976;2022-07-10T12:17:00;2.67;;;1.10;;
66886;SDS011;53798;51.680;5.976;2022-07-10T12:19:28;2.78;;;1.10;;
66886;SDS011;53798;51.680;5.976;2022-07-10T12:22:03;2.75;;;1.50;;
66886;SDS011;53798;51.680;5.976;2022-07-10T12:24:32;5.20;;;1.17;;
66886;SDS011;53798;51.680;5.976;2022-07-10T12:26:59;3.65;;;1.17;;
66886;SDS011;53798;51.680;5.976;2022-07-10T12:29:28;3.83;;;1.00;;
66886;SDS011;53798;51.680;5.976;2022-07-10T12:31:58;3.42;;;1.30;;
66886;SDS011;53798;51.680;5.976;2022-07-10T12:34:47;6.40;;;1.50;;
66886;SDS011;53798;51.680;5.976;2022-07-10T12:37:16;3.70;;;1.10;;
66886;SDS011;53798;51.680;5.976;2022-07-10T12:39:48;2.58;;;1.30;;
66886;SDS011;53798;51.680;5.976;2022-07-10T12:42:25;1.98;;;1.00;;
66886;SDS011;53798;51.680;5.976;2022-07-10T12:44:53;2.63;;;1.30;;
66886;SDS011;53798;51.680;5.976;2022-07-10T12:47:21;3.47;;;1.10;;
66886;SDS011;53798;51.680;5.976;2022-07-10T12:49:49;2.08;;;0.98;;
66886;SDS011;53798;51.680;5.976;2022-07-10T12:52:33;2.63;;;1.27;;
66886;SDS011;53798;51.680;5.976;2022-07-10T12:55:06;2.70;;;1.00;;
66886;SDS011;53798;51.680;5.976;2022-07-10T12:57:52;4.03;;;1.48;;
66886;SDS011;53798;51.680;5.976;2022-07-10T13:00:28;2.85;;;1.20;;
66886;SDS011;53798;51.680;5.976;2022-07-10T13:03:08;3.13;;;1.10;;
66886;SDS011;53798;51.680;5.976;2022-07-10T13:05:41;6.32;;;1.33;;
66886;SDS011;53798;51.680;5.976;2022-07-10T13:08:16;3.60;;;1.02;;
66886;SDS011;53798;51.680;5.976;2022-07-10T13:10:51;2.20;;;1.00;;
66886;SDS011;53798;51.680;5.976;2022-07-10T13:13:22;3.53;;;1.02;;
66886;SDS011;53798;51.680;5.976;2022-07-10T13:15:49;4.15;;;1.13;;
66886;SDS011;53798;51.680;5.976;2022-07-10T13:18:21;6.63;;;1.30;;
66886;SDS011;53798;51.680;5.976;2022-07-10T13:20:54;4.45;;;1.10;;
66886;SDS011;53798;51.680;5.976;2022-07-10T13:23:27;2.75;;;1.10;;
66886;SDS011;53798;51.680;5.976;2022-07-10T13:25:56;3.38;;;1.20;;
66886;SDS011;53798;51.680;5.976;2022-07-10T13:28:25;3.63;;;1.00;;
66886;SDS011;53798;51.680;5.976;2022-07-10T13:30:52;2.88;;;1.05;;
66886;SDS011;53798;51.680;5.976;2022-07-10T13:33:23;3.80;;;1.23;;
66886;SDS011;53798;51.680;5.976;2022-07-10T13:35:52;2.65;;;1.10;;
66886;SDS011;53798;51.680;5.976;2022-07-10T13:38:19;2.47;;;1.10;;
66886;SDS011;53798;51.680;5.976;2022-07-10T13:40:49;4.22;;;1.20;;
66886;SDS011;53798;51.680;5.976;2022-07-10T13:43:16;3.28;;;1.13;;
66886;SDS011;53798;51.680;5.976;2022-07-10T13:45:43;2.65;;;1.00;;
66886;SDS011;53798;51.680;5.976;2022-07-10T13:48:11;2.80;;;1.30;;
66886;SDS011;53798;51.680;5.976;2022-07-10T13:50:41;1.83;;;1.05;;
66886;SDS011;53798;51.680;5.976;2022-07-10T13:53:10;4.78;;;1.30;;
66886;SDS011;53798;51.680;5.976;2022-07-10T13:55:37;4.32;;;1.00;;
66886;SDS011;53798;51.680;5.976;2022-07-10T14:00:59;3.75;;;1.10;;
66886;SDS011;53798;51.680;5.976;2022-07-10T14:03:27;3.92;;;1.35;;
66886;SDS011;53798;51.680;5.976;2022-07-10T14:05:54;1.85;;;1.10;;
66886;SDS011;53798;51.680;5.976;2022-07-10T14:08:21;3.97;;;1.00;;
66886;SDS011;53798;51.680;5.976;2022-07-10T14:10:48;2.83;;;0.80;;
66886;SDS011;53798;51.680;5.976;2022-07-10T14:13:16;3.70;;;0.88;;
66886;SDS011;53798;51.680;5.976;2022-07-10T14:15:43;2.10;;;0.90;;
66886;SDS011;53798;51.680;5.976;2022-07-10T14:18:15;2.42;;;0.80;;
66886;SDS011;53798;51.680;5.976;2022-07-10T14:21:01;2.30;;;0.70;;
66886;SDS011;53798;51.680;5.976;2022-07-10T14:26:08;1.50;;;0.70;;
66886;SDS011;53798;51.680;5.976;2022-07-10T14:28:37;1.73;;;0.80;;
66886;SDS011;53798;51.680;5.976;2022-07-10T14:31:06;3.47;;;0.80;;
66886;SDS011;53798;51.680;5.976;2022-07-10T14:36:27;3.50;;;0.90;;
66886;SDS011;53798;51.680;5.976;2022-07-10T14:38:56;2.55;;;0.70;;
66886;SDS011;53798;51.680;5.976;2022-07-10T14:41:23;3.35;;;1.08;;
66886;SDS011;53798;51.680;5.976;2022-07-10T14:43:52;2.80;;;0.80;;
66886;SDS011;53798;51.680;5.976;2022-07-10T14:46:20;2.72;;;0.90;;
66886;SDS011;53798;51.680;5.976;2022-07-10T14:48:49;3.38;;;0.82;;
66886;SDS011;53798;51.680;5.976;2022-07-10T14:51:18;3.30;;;0.80;;
66886;SDS011;53798;51.680;5.976;2022-07-10T14:53:52;2.80;;;0.70;;
66886;SDS011;53798;51.680;5.976;2022-07-10T14:56:20;5.20;;;0.90;;
66886;SDS011;53798;51.680;5.976;2022-07-10T14:58:48;2.60;;;0.65;;
66886;SDS011;53798;51.680;5.976;2022-07-10T15:01:37;3.20;;;0.80;;
66886;SDS011;53798;51.680;5.976;2022-07-10T15:04:04;2.10;;;0.70;;
66886;SDS011;53798;51.680;5.976;2022-07-10T15:06:32;4.28;;;0.80;;
66886;SDS011;53798;51.680;5.976;2022-07-10T15:08:59;4.28;;;1.10;;
66886;SDS011;53798;51.680;5.976;2022-07-10T15:11:26;4.03;;;0.90;;
66886;SDS011;53798;51.680;5.976;2022-07-10T15:13:54;1.92;;;0.70;;
66886;SDS011;53798;51.680;5.976;2022-07-10T15:16:26;3.15;;;0.68;;
66886;SDS011;53798;51.680;5.976;2022-07-10T15:18:55;4.97;;;1.00;;
66886;SDS011;53798;51.680;5.976;2022-07-10T15:21:22;2.25;;;0.77;;
66886;SDS011;53798;51.680;5.976;2022-07-10T15:23:49;1.52;;;0.80;;
66886;SDS011;53798;51.680;5.976;2022-07-10T15:26:16;2.17;;;0.82;;
66886;SDS011;53798;51.680;5.976;2022-07-10T15:28:44;1.88;;;0.90;;
66886;SDS011;53798;51.680;5.976;2022-07-10T15:31:11;3.25;;;0.90;;
66886;SDS011;53798;51.680;5.976;2022-07-10T15:33:39;2.00;;;0.80;;
66886;SDS011;53798;51.680;5.976;2022-07-10T15:36:12;2.45;;;0.75;;
66886;SDS011;53798;51.680;5.976;2022-07-10T15:38:40;4.05;;;0.85;;
66886;SDS011;53798;51.680;5.976;2022-07-10T15:41:07;5.95;;;0.98;;
66886;SDS011;53798;51.680;5.976;2022-07-10T15:43:35;2.60;;;0.98;;
66886;SDS011;53798;51.680;5.976;2022-07-10T15:46:02;1.88;;;0.80;;
66886;SDS011;53798;51.680;5.976;2022-07-10T15:48:31;3.30;;;0.70;;
66886;SDS011;53798;51.680;5.976;2022-07-10T15:50:59;2.10;;;0.80;;
66886;SDS011;53798;51.680;5.976;2022-07-10T15:53:26;2.05;;;1.00;;
66886;SDS011;53798;51.680;5.976;2022-07-10T15:55:55;4.07;;;1.10;;
66886;SDS011;53798;51.680;5.976;2022-07-10T15:58:22;2.72;;;0.80;;